Time;durP1;ratioP1;P1;durP2;ratioP2;P2;SDS_P1;SDS_P2;PMS_P1;PMS_P2;Temp;Humidity;BMP_temperature;BMP_pressure;BME280_temperature;BME280_humidity;BME280_pressure;Samples;Min_cycle;Max_cycle;Signal;HPM_P1;HPM_P2
2021/05/03 00:02:25;;;;;;;0.70;0.60;;;2.70;99.90;;;2.82;100.00;-20758.81;5016697;28;20219;-68
2021/05/03 00:04:52;;;;;;;0.70;0.60;;;2.60;99.90;;;2.76;100.00;-20757.13;5005694;28;20196;-70
2021/05/03 00:07:19;;;;;;;0.70;0.60;;;2.50;99.90;;;2.73;100.00;-20756.31;4997307;28;20207;-68
2021/05/03 00:09:48;;;;;;;0.75;0.68;;;2.50;99.90;;;2.74;100.00;-20756.59;5009976;28;20191;-68
2021/05/03 00:12:15;;;;;;;0.70;0.63;;;2.50;99.90;;;2.66;100.00;-20754.50;5016621;28;20187;-68
2021/05/03 00:14:42;;;;;;;0.70;0.60;;;2.50;99.90;;;2.60;100.00;-20752.81;5016401;28;20675;-69
2021/05/03 00:17:09;;;;;;;0.70;0.60;;;2.50;99.90;;;2.55;100.00;-20751.41;5001296;28;20215;-69
2021/05/03 00:19:38;;;;;;;0.75;0.70;;;2.30;99.90;;;2.46;100.00;-20748.75;4997052;28;20270;-69
2021/05/03 00:22:05;;;;;;;0.70;0.70;;;2.30;99.90;;;2.47;100.00;-20749.03;4997547;28;20192;-69
2021/05/03 00:24:32;;;;;;;0.80;0.70;;;2.20;99.90;;;2.45;100.00;-20748.47;5011686;28;20269;-69
2021/05/03 00:27:00;;;;;;;0.80;0.70;;;2.20;99.90;;;2.47;100.00;-20749.03;5016338;28;20183;-69
2021/05/03 00:29:27;;;;;;;0.70;0.70;;;2.10;99.90;;;2.32;100.00;-20745.00;5016032;28;20237;-69
2021/05/03 00:31:54;;;;;;;0.80;0.70;;;2.20;99.90;;;2.29;100.00;-20744.16;5015757;28;20249;-69
2021/05/03 00:34:21;;;;;;;0.70;0.60;;;2.00;99.90;;;2.21;100.00;-20742.06;5007113;28;20191;-69
2021/05/03 00:36:48;;;;;;;0.77;0.70;;;2.00;99.90;;;2.16;100.00;-20740.66;5011295;28;20249;-69
2021/05/03 00:39:15;;;;;;;0.70;0.70;;;2.00;99.90;;;2.08;100.00;-20738.44;5010935;28;20746;-69
2021/05/03 00:41:42;;;;;;;0.80;0.60;;;1.90;99.90;;;2.08;100.00;-20738.44;4995736;28;20206;-70
2021/05/03 00:44:10;;;;;;;0.80;0.70;;;1.80;99.90;;;2.04;100.00;-20737.31;4996330;28;20258;-70
2021/05/03 00:46:39;;;;;;;0.80;0.70;;;1.80;99.90;;;2.01;100.00;-20736.63;4996079;28;20207;-70
2021/05/03 00:49:07;;;;;;;0.80;0.70;;;1.80;99.90;;;1.99;100.00;-20735.91;4997100;28;20249;-69
2021/05/03 00:51:34;;;;;;;0.80;0.70;;;1.80;99.90;;;1.96;100.00;-20735.06;4996077;28;20195;-69
2021/05/03 00:54:02;;;;;;;0.80;0.70;;;1.80;99.90;;;1.99;100.00;-20735.91;5011090;28;20294;-69
2021/05/03 00:56:28;;;;;;;0.77;0.70;;;1.70;99.90;;;1.97;100.00;-20735.34;5008593;28;20214;-69
2021/05/03 00:58:56;;;;;;;0.80;0.70;;;1.70;99.90;;;2.00;100.00;-20736.19;4996312;28;20188;-68
2021/05/03 01:01:24;;;;;;;0.70;0.60;;;1.70;99.90;;;1.96;100.00;-20735.06;4995340;28;20241;-68
2021/05/03 01:03:51;;;;;;;0.80;0.70;;;1.70;99.90;;;1.92;100.00;-20734.25;5010937;28;20187;-69
2021/05/03 01:06:18;;;;;;;0.88;0.80;;;1.70;99.90;;;1.90;100.00;-20733.53;4998385;28;20218;-69
2021/05/03 01:08:46;;;;;;;0.70;0.60;;;1.70;99.90;;;1.83;100.00;-20731.72;5015717;28;20215;-68
2021/05/03 01:11:13;;;;;;;0.80;0.70;;;1.60;99.90;;;1.77;100.00;-20729.91;4997449;28;20278;-70
2021/05/03 01:13:40;;;;;;;0.70;0.60;;;1.60;99.90;;;1.71;100.00;-20728.38;5010592;28;20191;-68
2021/05/03 01:16:07;;;;;;;0.70;0.60;;;1.60;99.90;;;1.72;100.00;-20728.66;4999610;28;20206;-69
2021/05/03 01:18:36;;;;;;;0.80;0.80;;;1.50;99.90;;;1.63;100.00;-20726.28;5014712;28;20663;-69
2021/05/03 01:21:05;;;;;;;0.80;0.80;;;1.50;99.90;;;1.61;100.00;-20725.56;5015250;28;20199;-68
2021/05/03 01:23:32;;;;;;;0.80;0.70;;;1.50;99.90;;;1.53;100.00;-20723.47;5005286;28;20243;-68
2021/05/03 01:26:00;;;;;;;0.70;0.60;;;1.50;99.90;;;1.54;100.00;-20723.63;4996009;28;20226;-70
2021/05/03 01:28:27;;;;;;;0.80;0.70;;;1.40;99.90;;;1.47;100.00;-20721.81;4977849;28;20187;-69
2021/05/03 01:30:58;;;;;;;0.80;0.70;;;1.30;99.90;;;1.50;100.00;-20722.50;5011251;28;20223;-69
2021/05/03 01:33:25;;;;;;;0.80;0.70;;;1.30;99.90;;;1.45;100.00;-20721.25;4976727;28;20184;-68
2021/05/03 01:35:52;;;;;;;0.75;0.68;;;1.20;99.90;;;1.38;100.00;-20719.44;4977703;28;20755;-68
2021/05/03 01:38:20;;;;;;;0.85;0.85;;;1.20;99.90;;;1.45;100.00;-20721.38;4977656;28;20326;-69
2021/05/03 01:40:47;;;;;;;0.80;0.70;;;1.20;99.90;;;1.50;100.00;-20722.50;4978108;28;20184;-68
2021/05/03 01:43:17;;;;;;;0.70;0.60;;;1.30;99.90;;;1.48;100.00;-20721.94;4998152;28;20555;-69
2021/05/03 01:45:45;;;;;;;0.70;0.60;;;1.40;99.90;;;1.52;100.00;-20723.06;5011991;28;20599;-69
2021/05/03 01:48:15;;;;;;;0.70;0.60;;;1.50;99.90;;;1.56;100.00;-20724.19;4994532;28;20188;-69
2021/05/03 01:50:43;;;;;;;0.70;0.68;;;1.60;99.90;;;1.56;100.00;-20724.19;5005362;28;20245;-69
2021/05/03 01:53:11;;;;;;;0.70;0.60;;;1.60;99.90;;;1.54;100.00;-20723.63;4994979;28;20200;-69
2021/05/03 01:55:44;;;;;;;0.80;0.70;;;1.50;99.90;;;1.53;100.00;-20723.34;4978808;28;20604;-69
2021/05/03 01:58:15;;;;;;;0.80;0.70;;;1.50;99.90;;;1.51;100.00;-20722.78;4995107;28;20636;-69
2021/05/03 02:00:42;;;;;;;0.80;0.70;;;1.50;99.90;;;1.48;100.00;-20721.94;4994471;28;20184;-68
2021/05/03 02:03:18;;;;;;;0.80;0.70;;;1.50;99.90;;;1.50;100.00;-20722.50;4986994;28;20188;-69
2021/05/03 02:05:45;;;;;;;0.80;0.70;;;1.50;99.90;;;1.56;100.00;-20724.19;4993524;28;20215;-69
2021/05/03 02:08:12;;;;;;;0.70;0.60;;;1.40;99.90;;;1.55;100.00;-20724.03;4994471;28;20243;-69
2021/05/03 02:10:41;;;;;;;0.77;0.70;;;1.50;99.90;;;1.51;100.00;-20722.94;4977232;28;20199;-69
2021/05/03 02:13:08;;;;;;;0.80;0.70;;;1.50;99.90;;;1.52;100.00;-20723.06;4994138;28;20230;-68
2021/05/03 02:15:36;;;;;;;0.70;0.65;;;1.50;99.90;;;1.47;100.00;-20721.81;4994478;28;20614;-69
2021/05/03 02:18:05;;;;;;;0.80;0.80;;;1.40;99.90;;;1.44;100.00;-20721.09;4994779;28;20694;-69
2021/05/03 02:20:33;;;;;;;0.75;0.70;;;1.30;99.90;;;1.38;100.00;-20719.44;4992888;28;20317;-69
2021/05/03 02:23:01;;;;;;;0.70;0.57;;;1.30;99.90;;;1.38;100.00;-20719.44;4994773;28;20250;-69
2021/05/03 02:25:28;;;;;;;0.80;0.70;;;1.30;99.90;;;1.29;100.00;-20716.91;5005278;28;20245;-68
2021/05/03 02:27:58;;;;;;;0.70;0.60;;;1.20;99.90;;;1.29;100.00;-20716.91;4969291;28;20286;-69
2021/05/03 02:30:26;;;;;;;0.70;0.60;;;1.20;99.90;;;1.30;100.00;-20717.06;5000417;28;20202;-69
2021/05/03 02:32:54;;;;;;;0.80;0.70;;;1.10;99.90;;;1.22;100.00;-20714.97;5013813;28;20522;-68
2021/05/03 02:35:23;;;;;;;0.70;0.63;;;1.10;99.90;;;1.13;100.00;-20712.56;4981533;28;20262;-68
2021/05/03 02:37:58;;;;;;;0.80;0.70;;;1.10;99.90;;;1.10;100.00;-20711.59;4994035;28;20204;-70
2021/05/03 02:40:26;;;;;;;0.70;0.70;;;1.00;99.90;;;1.10;100.00;-20711.59;5007663;28;20198;-71
2021/05/03 02:42:56;;;;;;;0.80;0.70;;;1.00;99.90;;;1.04;100.00;-20709.94;5013915;28;20175;-69
2021/05/03 02:45:26;;;;;;;0.80;0.70;;;1.00;99.90;;;0.96;100.00;-20707.97;4998533;28;20656;-69
2021/05/03 02:47:54;;;;;;;2.85;2.65;;;0.90;99.90;;;0.92;100.00;-20706.84;4993926;28;20195;-69
2021/05/03 02:50:24;;;;;;;0.70;0.60;;;0.90;99.90;;;0.89;100.00;-20706.00;4976040;28;20202;-69
2021/05/03 02:52:53;;;;;;;0.70;0.65;;;0.80;99.90;;;0.83;100.00;-20704.31;4977271;28;20305;-69
2021/05/03 02:55:21;;;;;;;0.80;0.70;;;0.70;99.90;;;0.83;100.00;-20704.31;4994924;28;20184;-69
2021/05/03 02:57:49;;;;;;;0.70;0.70;;;0.80;99.90;;;0.84;100.00;-20704.47;4977430;28;20246;-68
2021/05/03 03:00:24;;;;;;;0.70;0.68;;;0.80;99.90;;;0.89;100.00;-20706.00;4994178;28;20188;-68
2021/05/03 03:02:51;;;;;;;0.80;0.70;;;0.80;99.90;;;0.90;100.00;-20706.28;4993168;28;20183;-69
2021/05/03 03:05:18;;;;;;;0.80;0.70;;;0.70;99.90;;;0.81;100.00;-20703.78;4993701;28;20544;-69
2021/05/03 03:07:46;;;;;;;0.75;0.65;;;0.80;99.90;;;0.77;100.00;-20702.66;4998315;28;20206;-69
2021/05/03 03:10:13;;;;;;;0.80;0.70;;;0.70;99.90;;;0.74;100.00;-20701.81;5004565;28;20718;-70
2021/05/03 03:12:40;;;;;;;0.70;0.70;;;0.70;99.90;;;0.77;100.00;-20702.66;5013516;28;20596;-69
2021/05/03 03:15:10;;;;;;;0.70;0.60;;;0.60;99.90;;;0.68;100.00;-20700.13;5013668;28;20179;-69
2021/05/03 03:17:39;;;;;;;0.80;0.70;;;0.70;99.90;;;0.72;100.00;-20701.38;5013801;28;20551;-69
2021/05/03 03:20:09;;;;;;;0.80;0.70;;;0.70;99.90;;;0.69;100.00;-20700.41;5002801;28;20699;-69
2021/05/03 03:22:36;;;;;;;0.80;0.80;;;0.60;99.90;;;0.69;100.00;-20700.56;5006898;28;20233;-69
2021/05/03 03:25:05;;;;;;;0.80;0.80;;;0.60;99.90;;;0.65;100.00;-20699.44;4999964;28;20202;-69
2021/05/03 03:27:33;;;;;;;0.80;0.70;;;0.50;99.90;;;0.65;100.00;-20699.44;4983952;28;20195;-69
2021/05/03 03:30:00;;;;;;;0.70;0.60;;;0.50;99.90;;;0.81;100.00;-20703.78;4980336;28;20655;-70
2021/05/03 03:32:27;;;;;;;0.80;0.70;;;0.50;99.90;;;0.85;100.00;-20704.88;4997592;28;20676;-70
2021/05/03 03:34:55;;;;;;;0.80;0.70;;;0.70;99.90;;;0.82;100.00;-20704.06;4997342;28;20282;-69
2021/05/03 03:37:22;;;;;;;0.80;0.70;;;0.70;99.90;;;0.84;100.00;-20704.59;4998564;28;20264;-68
2021/05/03 03:39:49;;;;;;;0.70;0.63;;;0.70;99.90;;;0.90;100.00;-20706.16;4995458;28;20211;-68
2021/05/03 03:42:16;;;;;;;0.95;0.70;;;0.70;99.90;;;0.91;100.00;-20706.56;4979207;28;20192;-69
2021/05/03 03:44:43;;;;;;;0.80;0.80;;;0.70;99.90;;;0.82;100.00;-20704.06;5002095;28;20198;-69
2021/05/03 03:47:10;;;;;;;0.80;0.70;;;0.60;99.90;;;0.75;100.00;-20702.09;5008202;28;20639;-69
2021/05/03 03:49:38;;;;;;;0.80;0.70;;;0.60;99.90;;;0.72;100.00;-20701.25;5010279;28;20250;-69
2021/05/03 03:52:06;;;;;;;0.80;0.80;;;0.60;99.90;;;0.71;100.00;-20700.97;4997424;28;20246;-69
2021/05/03 03:54:33;;;;;;;0.80;0.70;;;0.50;99.90;;;0.69;100.00;-20700.41;4998219;28;20572;-68
2021/05/03 03:57:01;;;;;;;0.70;0.60;;;0.50;99.90;;;0.64;100.00;-20699.00;4996063;28;20212;-70
2021/05/03 03:59:31;;;;;;;0.80;0.80;;;0.50;99.90;;;0.62;100.00;-20698.44;4996847;28;20509;-68
2021/05/03 04:01:59;;;;;;;0.70;0.70;;;0.50;99.90;;;0.63;100.00;-20698.88;4997133;28;20230;-68
2021/05/03 04:04:29;;;;;;;0.80;0.70;;;0.50;99.90;;;0.63;100.00;-20698.75;4996091;28;20191;-69
2021/05/03 04:07:19;;;;;;;0.80;0.70;;;0.50;99.90;;;0.60;100.00;-20697.91;5012953;28;20274;-68
2021/05/03 04:25:40;;;;;;;0.80;0.70;;;1.50;99.90;;;1.74;100.00;-20729.22;5003753;28;20191;-68
2021/05/03 04:28:09;;;;;;;0.80;0.70;;;1.60;99.90;;;1.82;100.00;-20731.44;5016150;28;20179;-68
2021/05/03 04:30:37;;;;;;;0.80;0.70;;;1.60;99.90;;;1.82;100.00;-20731.44;4981822;28;20199;-69
2021/05/03 04:33:05;;;;;;;0.80;0.80;;;1.60;99.90;;;1.86;100.00;-20732.41;4996407;28;20227;-68
2021/05/03 04:35:32;;;;;;;0.70;0.65;;;1.60;99.90;;;1.94;100.00;-20734.78;4993866;28;20188;-69
2021/05/03 04:37:59;;;;;;;0.80;0.70;;;1.70;99.90;;;2.04;100.00;-20737.31;4995324;28;20211;-70
2021/05/03 04:40:26;;;;;;;0.70;0.60;;;1.80;99.90;;;2.25;100.00;-20743.19;4995141;28;20180;-69
2021/05/03 04:42:55;;;;;;;0.80;0.80;;;2.10;99.90;;;2.50;100.00;-20749.88;4994884;28;20184;-69
2021/05/03 04:45:23;;;;;;;0.70;0.60;;;2.30;99.90;;;2.75;100.00;-20756.72;4995908;28;20183;-69
2021/05/03 04:47:50;;;;;;;0.70;0.60;;;2.60;99.90;;;2.93;100.00;-20761.59;4995652;28;20278;-69
2021/05/03 04:50:18;;;;;;;0.70;0.65;;;2.60;99.90;;;3.01;100.00;-20763.97;4996565;28;20696;-69
2021/05/03 04:52:45;;;;;;;0.70;0.63;;;2.70;99.90;;;3.14;100.00;-20767.59;4996747;28;20211;-68
2021/05/03 04:55:12;;;;;;;0.82;0.80;;;2.80;99.90;;;3.56;100.00;-20778.91;4996800;28;20676;-68
2021/05/03 04:57:39;;;;;;;0.70;0.60;;;3.30;99.90;;;3.83;100.00;-20786.44;4996316;28;20231;-69
2021/05/03 05:00:09;;;;;;;0.70;0.60;;;3.50;99.90;;;4.08;100.00;-20793.25;4997229;28;20540;-69
2021/05/03 05:02:37;;;;;;;0.70;0.70;;;3.70;99.90;;;4.28;100.00;-20798.69;4999173;28;20195;-69
2021/05/03 05:05:08;;;;;;;0.70;0.70;;;3.90;99.90;;;4.50;100.00;-20804.53;5002795;28;20274;-69
2021/05/03 05:07:35;;;;;;;0.70;0.60;;;4.10;99.90;;;4.75;100.00;-20811.50;4990329;28;20210;-68
2021/05/03 05:10:02;;;;;;;0.70;0.60;;;4.30;99.90;;;5.06;100.00;-20819.88;4995648;28;20198;-68
2021/05/03 05:12:30;;;;;;;0.80;0.60;;;4.50;99.90;;;5.45;100.00;-20830.44;5003460;28;20195;-69
2021/05/03 05:14:57;;;;;;;0.70;0.60;;;4.80;99.90;;;5.63;100.00;-20835.31;4997641;28;20209;-69
2021/05/03 05:17:25;;;;;;;0.80;0.70;;;4.90;99.90;;;5.70;100.00;-20837.25;4998400;28;20215;-69
2021/05/03 05:19:53;;;;;;;0.70;0.70;;;5.00;99.90;;;5.77;100.00;-20839.34;4980648;28;20206;-68
2021/05/03 05:22:20;;;;;;;0.70;0.60;;;5.10;99.90;;;5.91;100.00;-20842.97;4995664;28;20187;-69
2021/05/03 05:24:49;;;;;;;0.70;0.70;;;5.20;99.90;;;5.83;100.00;-20840.88;4997144;28;20210;-71
2021/05/03 05:27:19;;;;;;;0.70;0.68;;;5.20;99.90;;;5.95;100.00;-20844.09;4996267;28;20176;-70
2021/05/03 05:29:46;;;;;;;0.70;0.60;;;5.20;99.90;;;5.92;100.00;-20843.38;4995288;28;20211;-69
2021/05/03 05:32:13;;;;;;;0.70;0.68;;;5.20;99.90;;;5.94;100.00;-20843.81;4978079;28;20230;-69
2021/05/03 05:34:41;;;;;;;0.70;0.60;;;5.20;99.90;;;6.12;100.00;-20848.81;4995306;28;20196;-69
2021/05/03 05:37:08;;;;;;;0.70;0.60;;;5.20;99.90;;;6.13;100.00;-20849.09;4977913;28;20592;-69
2021/05/03 05:39:35;;;;;;;0.80;0.70;;;5.30;99.90;;;6.33;100.00;-20854.38;5001580;28;20305;-69
2021/05/03 05:42:02;;;;;;;0.70;0.60;;;5.40;99.90;;;6.41;100.00;-20856.75;5009254;28;20574;-70
2021/05/03 05:44:30;;;;;;;0.70;0.60;;;5.40;99.90;;;6.41;100.00;-20856.59;5007754;28;20202;-70
2021/05/03 05:46:57;;;;;;;0.70;0.60;;;5.50;99.90;;;6.60;100.00;-20861.88;4994456;28;20195;-70
2021/05/03 05:49:24;;;;;;;0.70;0.60;;;5.60;99.90;;;6.71;100.00;-20864.94;4994672;28;20572;-69
2021/05/03 05:51:53;;;;;;;0.77;0.68;;;5.70;99.90;;;6.86;100.00;-20868.81;4994519;28;20664;-68
2021/05/03 05:54:20;;;;;;;0.70;0.60;;;5.80;99.90;;;6.88;100.00;-20869.38;5004971;28;20218;-69
2021/05/03 05:56:48;;;;;;;0.70;0.60;;;5.80;99.90;;;7.17;100.00;-20877.44;5003731;28;20204;-69
2021/05/03 05:59:15;;;;;;;3.70;3.42;;;6.00;99.90;;;7.15;100.00;-20876.88;4995029;28;20638;-69
2021/05/03 06:01:42;;;;;;;0.70;0.60;;;6.10;99.90;;;7.37;100.00;-20882.72;4995597;28;20183;-69
2021/05/03 06:04:09;;;;;;;0.70;0.63;;;6.20;99.90;;;7.59;100.00;-20888.81;4997580;28;20313;-70
2021/05/03 06:06:36;;;;;;;0.70;0.60;;;6.30;99.90;;;7.67;100.00;-20891.03;4994004;28;20439;-70
2021/05/03 06:09:11;;;;;;;0.70;0.60;;;6.30;99.90;;;7.49;100.00;-20886.03;5005849;28;20578;-70
2021/05/03 06:11:38;;;;;;;0.70;0.60;;;6.20;99.90;;;7.39;100.00;-20883.41;5009571;28;20195;-70
2021/05/03 06:14:05;;;;;;;0.70;0.60;;;6.30;99.90;;;7.61;100.00;-20889.25;4994813;28;20451;-69
2021/05/03 06:16:33;;;;;;;0.70;0.60;;;6.30;99.90;;;7.33;100.00;-20881.59;4994773;28;20503;-69
2021/05/03 06:19:00;;;;;;;0.70;0.60;;;6.30;99.90;;;7.16;100.00;-20877.16;4993738;28;20446;-70
2021/05/03 06:21:27;;;;;;;0.70;0.60;;;6.30;99.90;;;7.09;100.00;-20875.06;5003023;28;20536;-69
2021/05/03 06:23:55;;;;;;;0.70;0.57;;;6.20;99.90;;;7.23;100.00;-20878.97;5011503;28;20474;-70
2021/05/03 06:26:23;;;;;;;0.90;0.90;;;6.20;99.90;;;7.19;100.00;-20877.84;5012109;28;20436;-70
2021/05/03 06:28:54;;;;;;;0.70;0.60;;;6.30;99.90;;;7.33;100.00;-20881.59;4981591;28;20788;-69
2021/05/03 06:31:21;;;;;;;0.70;0.60;;;6.40;99.90;;;7.44;100.00;-20884.66;4994286;28;20434;-69
2021/05/03 06:33:49;;;;;;;0.70;0.60;;;6.50;99.90;;;7.52;100.00;-20886.88;4994264;28;20407;-70
2021/05/03 06:36:16;;;;;;;0.70;0.60;;;6.60;99.90;;;7.47;100.00;-20885.50;5006000;28;20461;-70
2021/05/03 06:38:44;;;;;;;0.70;0.60;;;6.60;99.90;;;7.58;100.00;-20888.53;5013874;28;20226;-70
2021/05/03 06:41:11;;;;;;;0.70;0.60;;;6.70;99.90;;;7.80;100.00;-20894.38;4996363;28;20446;-70
2021/05/03 06:43:39;;;;;;;0.70;0.60;;;6.90;99.90;;;8.15;100.00;-20904.09;4984288;28;20415;-69
2021/05/03 06:46:08;;;;;;;0.80;0.70;;;7.00;99.90;;;8.15;100.00;-20904.09;4987757;28;20446;-70
2021/05/03 06:48:35;;;;;;;0.70;0.50;;;7.40;99.90;;;8.23;100.00;-20906.31;4996497;28;20863;-69
2021/05/03 06:51:02;;;;;;;0.70;0.60;;;7.40;99.90;;;8.35;100.00;-20909.50;5000233;28;20454;-70
2021/05/03 06:53:30;;;;;;;0.70;0.60;;;7.40;99.90;;;8.37;100.00;-20909.91;4992832;28;20445;-70
2021/05/03 06:56:02;;;;;;;0.70;0.60;;;7.30;99.90;;;8.39;100.00;-20910.63;4977111;28;20439;-70
2021/05/03 06:58:31;;;;;;;0.70;0.60;;;7.30;99.90;;;8.23;100.00;-20906.16;5014800;28;20928;-74
2021/05/03 07:01:03;;;;;;;0.70;0.60;;;7.40;99.90;;;8.23;100.00;-20906.31;4986516;28;20455;-69
2021/05/03 07:03:30;;;;;;;0.70;0.60;;;7.40;99.90;;;8.29;100.00;-20907.69;5006858;28;20949;-69
2021/05/03 07:05:57;;;;;;;0.70;0.60;;;7.50;99.90;;;8.40;100.00;-20910.75;5009958;28;20443;-69
2021/05/03 07:08:25;;;;;;;0.70;0.60;;;7.70;99.90;;;8.81;100.00;-20921.97;4999090;28;20439;-70
2021/05/03 07:10:53;;;;;;;0.70;0.60;;;7.90;99.90;;;9.04;100.00;-20928.22;4994343;28;20430;-68
2021/05/03 07:13:26;;;;;;;0.70;0.60;;;8.30;99.90;;;9.25;100.00;-20933.75;4994478;28;20438;-72
2021/05/03 07:15:56;;;;;;;0.70;0.53;;;8.40;99.90;;;9.64;100.00;-20944.56;4997277;28;20506;-68
2021/05/03 07:18:25;;;;;;;0.70;0.60;;;8.90;99.90;;;9.88;100.00;-20950.94;4996150;28;20553;-69
2021/05/03 07:20:55;;;;;;;0.70;0.60;;;9.10;99.90;;;10.21;100.00;-20959.94;5001330;28;20434;-70
2021/05/03 07:23:24;;;;;;;0.80;0.70;;;8.90;99.90;;;10.09;100.00;-20956.75;5001063;28;20485;-69
2021/05/03 07:25:51;;;;;;;0.70;0.60;;;9.10;99.90;;;10.58;100.00;-20970.03;4985180;28;20443;-70
2021/05/03 07:28:19;;;;;;;0.80;0.70;;;9.30;99.50;;;10.55;100.00;-20969.22;4994040;28;20440;-69
2021/05/03 07:30:46;;;;;;;0.70;0.60;;;9.10;96.90;;;10.98;100.00;-20980.81;4994841;28;20484;-69
2021/05/03 07:33:14;;;;;;;0.80;0.70;;;9.30;96.50;;;11.41;100.00;-20992.28;4992618;28;20456;-70
2021/05/03 07:35:43;;;;;;;0.80;0.70;;;9.70;94.80;;;11.65;100.00;-20998.78;5000278;28;20971;-69
2021/05/03 07:38:10;;;;;;;0.80;0.73;;;10.10;92.60;;;12.18;100.00;-21013.16;5008156;28;20484;-68
2021/05/03 07:40:36;;;;;;;0.70;0.60;;;10.40;89.60;;;12.69;100.00;-21026.97;5013696;28;20423;-69
2021/05/03 07:43:05;;;;;;;0.80;0.60;;;10.50;86.20;;;13.73;100.00;-21055.09;4995866;28;20501;-69
2021/05/03 07:45:36;;;;;;;0.80;0.60;;;11.00;82.90;;;14.63;100.00;-21079.34;5014275;28;20433;-71
2021/05/03 07:48:06;;;;;;;0.70;0.60;;;11.40;79.10;;;14.81;100.00;-21084.16;4994887;28;20446;-70
2021/05/03 07:50:34;;;;;;;0.80;0.60;;;11.40;70.80;;;14.65;100.00;-21079.88;5000054;28;20449;-69
2021/05/03 07:53:03;;;;;;;0.70;0.60;;;12.00;72.10;;;15.32;100.00;-21098.03;4991731;28;20442;-71
2021/05/03 07:55:31;;;;;;;0.80;0.60;;;12.50;66.70;;;15.55;100.00;-21104.09;4992363;28;20442;-70
2021/05/03 07:58:00;;;;;;;0.80;0.67;;;12.80;63.30;;;15.49;100.00;-21102.56;5009070;28;20451;-70
2021/05/03 08:00:28;;;;;;;0.80;0.60;;;12.60;59.00;;;16.30;100.00;-21124.44;4993734;28;20431;-69
2021/05/03 08:02:56;;;;;;;0.70;0.60;;;12.40;54.20;;;16.11;100.00;-21119.34;4975794;28;20425;-70
2021/05/03 08:05:24;;;;;;;0.70;0.60;;;12.30;53.30;;;15.42;100.00;-21100.78;4994779;28;20537;-70
2021/05/03 08:07:52;;;;;;;0.70;0.60;;;12.40;53.80;;;15.37;100.00;-21099.41;4996693;28;20448;-69
2021/05/03 08:10:20;;;;;;;0.80;0.70;;;12.90;52.80;;;15.59;100.00;-21105.19;4979188;28;20405;-69
2021/05/03 08:12:52;;;;;;;0.80;0.70;;;13.30;52.40;;;17.22;100.00;-21149.00;4981197;28;20447;-69
2021/05/03 08:15:22;;;;;;;0.77;0.60;;;13.80;49.10;;;16.91;100.00;-21140.78;5012521;28;20420;-70
2021/05/03 08:17:49;;;;;;;0.80;0.60;;;14.40;47.40;;;16.77;95.32;-21136.94;5000602;28;20458;-69
2021/05/03 08:20:19;;;;;;;0.80;0.60;;;14.50;35.10;;;16.30;92.27;-21124.44;4996855;28;20443;-69
2021/05/03 08:22:46;;;;;;;0.70;0.60;;;14.50;29.60;;;16.88;93.73;-21140.06;4979268;28;20541;-70
2021/05/03 08:25:15;;;;;;;0.70;0.60;;;14.30;28.70;;;15.82;95.39;-21111.38;4984702;28;20800;-69
2021/05/03 08:27:43;;;;;;;0.70;0.60;;;14.10;27.80;;;15.99;96.76;-21115.91;4979250;28;20411;-70
2021/05/03 08:30:12;;;;;;;0.70;0.60;;;14.10;27.90;;;17.38;86.09;-21153.53;4997003;28;20485;-70
2021/05/03 08:32:41;;;;;;;0.70;0.60;;;13.80;20.30;;;17.49;87.62;-21156.25;4997189;28;20411;-69
2021/05/03 08:35:09;;;;;;;0.70;0.60;;;14.70;23.70;;;17.23;85.36;-21149.41;4995636;28;20466;-71
2021/05/03 08:37:37;;;;;;;0.70;0.60;;;14.70;18.60;;;17.61;84.52;-21159.56;4995835;28;20488;-71
2021/05/03 08:40:06;;;;;;;0.70;0.60;;;15.10;19.60;;;16.92;82.50;-21141.03;4996223;28;20942;-71
2021/05/03 08:42:33;;;;;;;0.70;0.60;;;15.20;17.10;;;17.25;84.11;-21149.81;4979666;28;20437;-71
2021/05/03 08:45:03;;;;;;;0.70;0.60;;;15.10;16.40;;;16.80;83.37;-21137.88;4995166;28;20522;-69
2021/05/03 08:47:35;;;;;;;0.70;0.60;;;15.10;14.90;;;16.86;85.38;-21139.53;5015308;28;20445;-70
2021/05/03 08:50:54;;;;;;;0.70;0.60;;;14.90;16.80;;;16.80;84.66;-21137.88;5013536;28;20415;-69
2021/05/03 08:52:55;;;;;;;0.80;0.60;;;14.90;14.60;;;16.39;87.21;-21126.91;5005176;28;20476;-70
2021/05/03 08:55:22;;;;;;;0.70;0.60;;;14.80;15.80;;;17.52;90.61;-21157.22;5007238;28;20418;-71
2021/05/03 08:57:49;;;;;;;0.80;0.60;;;15.20;20.50;;;19.04;83.72;-21197.91;4999256;28;21028;-69
2021/05/03 09:00:18;;;;;;;0.70;0.60;;;15.10;17.10;;;20.15;80.94;-21227.56;4996172;28;20413;-70
2021/05/03 09:02:47;;;;;;;0.70;0.60;;;14.90;16.20;;;18.51;82.05;-21183.66;4996289;28;20417;-70
2021/05/03 09:05:16;;;;;;;0.70;0.60;;;15.30;17.70;;;17.90;85.42;-21167.38;5001545;28;20479;-71
2021/05/03 09:07:48;;;;;;;0.90;0.90;;;15.40;16.00;;;19.31;80.65;-21205.28;4995246;28;20542;-72
2021/05/03 09:10:19;;;;;;;0.70;0.60;;;15.20;14.70;;;20.12;78.02;-21226.91;4996196;28;20431;-70
2021/05/03 09:12:53;;;;;;;0.70;0.60;;;15.30;12.10;;;21.11;74.02;-21253.25;4996800;28;20792;-72
2021/05/03 09:15:24;;;;;;;0.80;0.70;;;15.20;11.20;;;19.92;75.65;-21221.44;4994897;28;20435;-70
2021/05/03 09:17:52;;;;;;;0.70;0.60;;;15.40;13.00;;;19.81;76.60;-21218.41;5003412;28;20466;-69
2021/05/03 09:20:28;;;;;;;0.80;0.60;;;15.90;12.20;;;20.03;74.74;-21224.44;4983003;28;20446;-72
2021/05/03 09:23:04;;;;;;;0.70;0.60;;;16.20;9.40;;;18.89;73.33;-21193.81;4994725;28;20482;-70
2021/05/03 09:25:41;;;;;;;0.80;0.70;;;16.10;6.80;;;16.89;77.60;-21140.22;4995353;28;20425;-73
2021/05/03 09:28:14;;;;;;;0.80;0.60;;;14.60;6.40;;;15.28;80.64;-21096.94;4979267;28;20448;-73
2021/05/03 09:30:45;;;;;;;0.70;0.60;;;14.30;8.20;;;16.52;80.21;-21130.34;4975052;28;20442;-70
2021/05/03 09:33:20;;;;;;;0.80;0.63;;;13.90;9.40;;;17.65;80.41;-21160.66;5011538;28;20478;-70
2021/05/03 09:35:52;;;;;;;0.70;0.60;;;15.30;11.90;;;17.90;78.04;-21167.38;5001901;28;21034;-70
2021/05/03 09:38:38;;;;;;;0.77;0.67;;;15.20;9.10;;;17.91;78.73;-21167.50;4994114;28;20471;-70
2021/05/03 09:41:18;;;;;;;0.80;0.80;;;14.40;11.10;;;17.86;78.92;-21166.41;4995269;28;20409;-70
2021/05/03 09:43:48;;;;;;;0.80;0.70;;;14.20;11.40;;;17.01;81.12;-21143.38;4995334;28;20778;-70
2021/05/03 09:46:36;;;;;;;0.80;0.70;;;14.40;12.20;;;15.76;81.80;-21109.72;4993677;28;20416;-70
2021/05/03 09:49:08;;;;;;;1.00;0.93;;;13.70;12.10;;;15.34;90.44;-21098.59;4994544;28;20423;-70
2021/05/03 09:51:43;;;;;;;0.77;0.63;;;13.60;14.60;;;15.51;88.17;-21103.00;4996227;28;20431;-71
2021/05/03 09:54:13;;;;;;;0.73;0.63;;;13.90;13.00;;;15.10;85.75;-21092.00;4987402;28;20963;-71
2021/05/03 09:57:05;;;;;;;0.70;0.60;;;13.30;10.90;;;14.87;91.67;-21085.78;4995345;28;20474;-70
2021/05/03 09:59:36;;;;;;;0.77;0.67;;;13.10;13.20;;;15.42;87.63;-21100.78;4995059;28;20830;-71
2021/05/03 10:04:55;;;;;;;0.80;0.70;;;13.90;13.80;;;15.80;87.04;-21110.97;4993221;28;20494;-70
2021/05/03 10:07:25;;;;;;;0.80;0.70;;;14.30;12.70;;;15.55;86.35;-21104.09;5001078;28;20530;-69
2021/05/03 10:10:00;;;;;;;0.80;0.70;;;14.10;11.50;;;15.59;86.60;-21105.31;4991804;28;20448;-70
2021/05/03 10:12:28;;;;;;;0.90;0.70;;;13.80;11.20;;;14.77;89.83;-21083.19;4997609;28;20452;-70
2021/05/03 10:14:59;;;;;;;0.80;0.70;;;13.70;12.50;;;15.53;92.95;-21103.53;4983305;28;20527;-71
2021/05/03 10:17:30;;;;;;;0.80;0.70;;;14.30;14.50;;;17.89;84.75;-21166.97;5011191;28;20530;-70
2021/05/03 10:20:00;;;;;;;0.80;0.70;;;15.20;12.50;;;19.55;79.53;-21211.59;5012039;28;20415;-70
2021/05/03 10:22:31;;;;;;;0.77;0.60;;;16.00;9.00;;;19.09;75.70;-21199.13;4990610;28;20498;-71
2021/05/03 10:25:03;;;;;;;0.70;0.60;;;16.40;6.90;;;20.23;76.17;-21229.75;4975081;28;20951;-71
2021/05/03 10:27:32;;;;;;;0.80;0.60;;;17.00;7.90;;;21.30;73.52;-21258.28;4976021;28;20832;-70
2021/05/03 10:30:10;;;;;;;0.70;0.60;;;16.70;6.00;;;20.26;72.78;-21230.72;4994915;28;20900;-69
2021/05/03 10:32:39;;;;;;;0.80;0.60;;;15.60;6.50;;;18.16;75.53;-21174.34;4996945;28;20395;-68
2021/05/03 10:35:22;;;;;;;0.80;0.70;;;15.40;6.80;;;17.33;76.09;-21152.00;5013428;28;20464;-71
2021/05/03 10:37:52;;;;;;;0.80;0.70;;;15.10;5.70;;;19.06;77.97;-21198.44;5004999;28;20544;-70
2021/05/03 10:40:46;;;;;;;0.80;0.70;;;16.30;7.20;;;19.88;74.11;-21220.47;5013774;28;20385;-70
2021/05/03 10:43:18;;;;;;;0.80;0.60;;;16.70;4.10;;;18.21;72.19;-21175.72;4980440;28;20449;-69
2021/05/03 10:46:09;;;;;;;0.80;0.70;;;15.70;3.10;;;18.49;78.74;-21183.13;4995681;28;20417;-69